Time;durP1;ratioP1;P1;durP2;ratioP2;P2;SDS_P1;SDS_P2;PMS_P1;PMS_P2;Temp;Humidity;BMP_temperature;BMP_pressure;BME280_temperature;BME280_humidity;BME280_pressure;Samples;Min_cycle;Max_cycle;Signal;HPM_P1;HPM_P2
2022/08/01 00:00:36;;;;;;;2.63;1.52;;;31.20;26.10;;;;;;21247880;27;20067;-57
2022/08/01 00:10:50;;;;;;;3.42;1.75;;;31.10;28.00;;;;;;21248176;28;20410;-55
2022/08/01 00:20:51;;;;;;;3.92;2.88;;;30.90;29.60;;;;;;21247685;28;20047;-54
2022/08/01 00:31:06;;;;;;;5.25;1.90;;;30.80;30.50;;;;;;21246605;28;20134;-57
2022/08/01 00:41:13;;;;;;;5.05;2.47;;;30.70;31.30;;;;;;21245845;28;20060;-56
2022/08/01 00:51:15;;;;;;;5.72;2.22;;;30.50;31.70;;;;;;21245894;28;20100;-55
2022/08/01 01:01:25;;;;;;;3.30;2.00;;;30.30;32.60;;;;;;21260679;27;20043;-55
2022/08/01 01:11:31;;;;;;;4.85;2.30;;;30.10;32.80;;;;;;21260866;27;20430;-55
2022/08/01 01:21:42;;;;;;;4.30;2.30;;;30.10;33.10;;;;;;21259684;27;20047;-55
2022/08/01 01:31:57;;;;;;;4.55;2.40;;;30.00;33.90;;;;;;21258877;27;20047;-54
2022/08/01 01:42:04;;;;;;;7.43;2.22;;;29.90;34.30;;;;;;21257470;27;20188;-56
2022/08/01 01:52:08;;;;;;;6.00;2.78;;;29.70;35.00;;;;;;21257478;27;20080;-56
2022/08/01 02:02:11;;;;;;;6.15;2.67;;;29.70;35.70;;;;;;21255830;27;20092;-55
2022/08/01 02:12:16;;;;;;;4.57;2.88;;;29.60;36.00;;;;;;21255511;27;20055;-55
2022/08/01 02:22:28;;;;;;;4.70;2.58;;;29.60;36.20;;;;;;21255236;27;20501;-55
2022/08/01 02:32:45;;;;;;;5.07;2.95;;;29.60;36.50;;;;;;21254001;27;20581;-54
2022/08/01 02:42:54;;;;;;;3.33;2.40;;;29.50;36.80;;;;;;21252774;27;20063;-54
2022/08/01 02:52:57;;;;;;;7.78;2.78;;;29.40;37.50;;;;;;21253081;27;20051;-56
2022/08/01 03:03:01;;;;;;;4.55;2.55;;;29.20;38.20;;;;;;21233170;27;20475;-56
2022/08/01 03:13:06;;;;;;;6.43;2.40;;;29.00;38.40;;;;;;21250803;27;20074;-56
2022/08/01 03:23:10;;;;;;;5.80;2.50;;;28.80;38.60;;;;;;21251560;27;20054;-54
2022/08/01 03:33:12;;;;;;;8.13;3.20;;;28.60;39.10;;;;;;21250723;27;20388;-55
2022/08/01 03:43:27;;;;;;;5.07;2.38;;;28.50;39.30;;;;;;21251036;27;20414;-55
2022/08/01 03:53:31;;;;;;;4.75;2.60;;;28.50;39.40;;;;;;21249428;27;20048;-55
2022/08/01 04:03:33;;;;;;;5.72;3.40;;;28.30;39.90;;;;;;21248765;27;20550;-55
2022/08/01 04:13:35;;;;;;;6.53;3.30;;;28.30;41.30;;;;;;21247031;28;20129;-56
2022/08/01 04:23:41;;;;;;;8.80;3.03;;;28.30;42.60;;;;;;21247986;28;20047;-56
2022/08/01 04:33:47;;;;;;;9.10;3.40;;;28.30;42.90;;;;;;21258299;27;20413;-56
2022/08/01 04:43:51;;;;;;;7.70;3.92;;;28.20;43.20;;;;;;21262529;27;20392;-58
2022/08/01 04:53:52;;;;;;;4.43;2.53;;;28.10;43.60;;;;;;21262954;27;20047;-57
2022/08/01 05:03:54;;;;;;;7.53;3.33;;;28.10;43.30;;;;;;21261687;27;20136;-57
2022/08/01 05:13:56;;;;;;;7.43;3.60;;;28.10;43.50;;;;;;21260773;27;20091;-56
2022/08/01 05:23:58;;;;;;;7.93;3.63;;;28.10;43.50;;;;;;21259400;27;20047;-57
2022/08/01 05:34:01;;;;;;;7.15;3.70;;;28.00;43.50;;;;;;21259049;27;20472;-56
2022/08/01 05:44:04;;;;;;;8.07;3.13;;;28.00;43.60;;;;;;21256170;27;20108;-56
2022/08/01 05:54:07;;;;;;;6.45;3.40;;;27.90;43.80;;;;;;21256969;27;20055;-57
2022/08/01 06:04:11;;;;;;;7.53;3.72;;;27.80;44.10;;;;;;21256336;27;20047;-57
2022/08/01 06:14:13;;;;;;;11.18;3.97;;;27.80;43.90;;;;;;21255332;27;20058;-57
2022/08/01 06:24:16;;;;;;;7.93;3.35;;;27.80;44.30;;;;;;21254866;27;20134;-55
2022/08/01 06:34:18;;;;;;;8.60;3.78;;;27.80;44.60;;;;;;21254402;27;20066;-59
2022/08/01 06:44:19;;;;;;;6.25;3.67;;;27.90;44.50;;;;;;21252300;27;20065;-56
2022/08/01 06:54:21;;;;;;;8.20;3.88;;;28.10;43.90;;;;;;21252625;27;20051;-57
2022/08/01 07:04:23;;;;;;;10.07;3.97;;;28.40;43.10;;;;;;21251961;27;20134;-56
2022/08/01 07:14:24;;;;;;;6.85;3.70;;;28.80;43.10;;;;;;21250553;27;20072;-58
2022/08/01 07:24:28;;;;;;;8.60;4.28;;;29.10;42.70;;;;;;21250792;27;20423;-56
2022/08/01 07:34:30;;;;;;;12.68;4.65;;;29.50;42.60;;;;;;21249372;27;20047;-57
2022/08/01 07:44:32;;;;;;;9.95;4.05;;;29.70;43.30;;;;;;21248602;27;20560;-57
2022/08/01 07:54:34;;;;;;;7.75;4.00;;;30.10;43.30;;;;;;21248440;27;20063;-56
2022/08/01 08:04:36;;;;;;;8.40;3.78;;;30.30;43.00;;;;;;21247122;27;20047;-57
2022/08/01 08:14:38;;;;;;;11.18;4.93;;;30.60;43.10;;;;;;21247395;28;20100;-57
2022/08/01 08:24:40;;;;;;;10.90;4.80;;;30.90;44.20;;;;;;21249470;28;20468;-59
2022/08/01 08:34:42;;;;;;;10.18;4.10;;;31.20;44.00;;;;;;21246236;28;20054;-55
2022/08/01 08:44:45;;;;;;;7.93;4.05;;;31.20;44.40;;;;;;21245502;28;20184;-55
2022/08/01 08:54:48;;;;;;;10.93;4.13;;;31.40;44.10;;;;;;21245735;28;20054;-57
2022/08/01 09:04:51;;;;;;;11.48;4.03;;;31.60;43.30;;;;;;21244739;28;20047;-55
2022/08/01 09:14:53;;;;;;;10.00;3.97;;;31.90;43.00;;;;;;21244689;27;20073;-57
2022/08/01 09:25:10;;;;;;;8.27;4.53;;;31.90;42.60;;;;;;21260416;27;20475;-56
2022/08/01 09:35:36;;;;;;;8.02;4.18;;;31.90;42.60;;;;;;21258578;27;20050;-54
2022/08/01 09:45:38;;;;;;;11.50;4.28;;;32.20;42.00;;;;;;21257962;27;20384;-58
2022/08/01 09:55:42;;;;;;;9.90;4.28;;;32.50;41.10;;;;;;21257863;27;20049;-57
2022/08/01 10:05:45;;;;;;;9.85;3.85;;;32.60;41.00;;;;;;21256482;27;20487;-57
2022/08/01 10:15:47;;;;;;;7.50;4.35;;;32.80;39.50;;;;;;21255688;27;20043;-54
2022/08/01 10:25:53;;;;;;;8.05;4.93;;;32.80;39.90;;;;;;21253780;27;20107;-55
2022/08/01 10:35:56;;;;;;;15.88;4.93;;;33.20;38.90;;;;;;21252964;27;20069;-55
2022/08/01 10:45:59;;;;;;;8.02;4.00;;;33.40;37.50;;;;;;21235067;27;20498;-57
2022/08/01 10:56:03;;;;;;;8.73;4.07;;;33.50;37.30;;;;;;21251732;27;20050;-58
2022/08/01 11:06:21;;;;;;;6.50;4.28;;;33.70;36.90;;;;;;21251207;27;20043;-55
2022/08/01 11:16:28;;;;;;;8.32;3.58;;;34.00;34.70;;;;;;21250510;27;20059;-58
2022/08/01 11:26:30;;;;;;;6.90;3.85;;;34.00;31.70;;;;;;21251496;27;20535;-57
2022/08/01 11:36:32;;;;;;;5.50;2.83;;;34.30;32.40;;;;;;21250068;27;20059;-56
2022/08/01 11:47:03;;;;;;;5.65;2.95;;;34.30;29.60;;;;;;21248010;27;20047;-57
2022/08/01 11:57:07;;;;;;;4.97;2.80;;;34.60;25.00;;;;;;21248196;27;20465;-57
2022/08/01 12:07:17;;;;;;;3.83;2.40;;;34.80;27.30;;;;;;21230137;28;20047;-59
2022/08/01 12:17:27;;;;;;;6.72;2.97;;;35.00;23.00;;;;;;21246858;28;20084;-57
2022/08/01 12:27:30;;;;;;;4.88;3.25;;;35.10;23.60;;;;;;21246369;28;20047;-55
2022/08/01 12:37:39;;;;;;;5.93;2.88;;;35.20;23.30;;;;;;21246748;28;20066;-56
2022/08/01 12:47:42;;;;;;;4.15;3.08;;;35.40;23.80;;;;;;21245946;27;20175;-57
2022/08/01 12:57:52;;;;;;;5.43;3.05;;;35.50;23.40;;;;;;21243163;27;20058;-57
2022/08/01 13:07:54;;;;;;;4.70;2.42;;;35.50;23.00;;;;;;21261450;27;20079;-56
2022/08/01 13:17:56;;;;;;;4.68;3.17;;;35.70;22.60;;;;;;21260753;27;20047;-56
2022/08/01 13:28:18;;;;;;;5.07;2.63;;;36.20;22.00;;;;;;21259592;27;20043;-56
2022/08/01 13:39:40;;;;;;;4.00;2.70;;;36.50;21.80;;;;;;21258766;27;20088;-56
2022/08/01 13:48:45;;;;;;;4.90;2.58;;;36.60;21.30;;;;;;21258191;27;20082;-56
2022/08/01 13:58:48;;;;;;;3.58;2.75;;;36.50;21.60;;;;;;21257297;27;20047;-57
2022/08/01 14:08:50;;;;;;;5.90;2.70;;;37.00;21.00;;;;;;21254941;27;20080;-57
2022/08/01 14:18:52;;;;;;;3.38;2.67;;;36.90;21.20;;;;;;21254841;27;20051;-57
2022/08/01 14:28:54;;;;;;;3.58;2.70;;;37.10;21.10;;;;;;21254459;27;20065;-56
2022/08/01 14:38:56;;;;;;;4.72;3.10;;;37.10;20.80;;;;;;21252750;27;20043;-56
2022/08/01 14:48:58;;;;;;;3.50;2.70;;;37.10;21.00;;;;;;21252034;27;20100;-58
2022/08/01 14:59:00;;;;;;;7.88;2.65;;;37.10;21.00;;;;;;21252028;27;20050;-57
2022/08/01 15:09:02;;;;;;;5.63;2.75;;;37.00;21.30;;;;;;21250043;27;20043;-58
2022/08/01 15:19:04;;;;;;;3.63;2.58;;;37.00;21.30;;;;;;21250879;27;20049;-58
2022/08/01 15:29:06;;;;;;;4.32;2.60;;;37.10;20.80;;;;;;21249536;27;20050;-57
2022/08/01 15:39:08;;;;;;;4.32;3.22;;;37.10;21.20;;;;;;21248257;27;20166;-56
2022/08/01 15:49:10;;;;;;;4.80;2.83;;;37.10;21.20;;;;;;21247975;27;20081;-57
2022/08/01 15:59:12;;;;;;;4.10;2.60;;;37.10;20.80;;;;;;21248518;27;20499;-58
2022/08/01 16:09:14;;;;;;;4.18;2.80;;;37.10;20.90;;;;;;21247228;27;20131;-55
2022/08/01 16:19:16;;;;;;;5.45;2.63;;;37.30;21.00;;;;;;21245955;28;20051;-57
2022/08/01 16:29:17;;;;;;;9.00;2.80;;;37.10;21.00;;;;;;21257080;27;20050;-56
2022/08/01 16:39:20;;;;;;;4.55;3.38;;;37.00;20.90;;;;;;21263418;27;20392;-56
2022/08/01 16:49:22;;;;;;;6.40;2.85;;;37.10;21.30;;;;;;21262729;27;20077;-57
2022/08/01 16:59:23;;;;;;;5.07;2.65;;;37.20;21.00;;;;;;21262500;27;20039;-56
2022/08/01 17:09:25;;;;;;;4.22;3.40;;;37.10;21.30;;;;;;21260292;27;20047;-58
2022/08/01 17:19:26;;;;;;;4.25;3.05;;;36.80;21.80;;;;;;21260343;27;20067;-57
2022/08/01 17:29:28;;;;;;;5.22;3.35;;;36.90;21.90;;;;;;21259294;27;20047;-57
2022/08/01 17:39:30;;;;;;;5.45;3.08;;;36.80;21.50;;;;;;21257581;27;20522;-57
2022/08/01 17:49:31;;;;;;;3.88;2.70;;;36.70;21.70;;;;;;21257264;27;20086;-57
2022/08/01 17:59:33;;;;;;;6.00;3.03;;;36.60;21.40;;;;;;21256878;27;20455;-57
2022/08/01 18:09:35;;;;;;;5.75;4.25;;;36.70;21.20;;;;;;21255305;27;20055;-57
2022/08/01 18:19:37;;;;;;;5.15;3.15;;;36.70;21.50;;;;;;21255075;27;20047;-56
2022/08/01 18:29:39;;;;;;;4.97;3.20;;;36.70;21.50;;;;;;21254734;27;20058;-58
2022/08/01 18:39:41;;;;;;;4.57;3.75;;;36.60;21.80;;;;;;21253277;27;20047;-58
2022/08/01 18:49:43;;;;;;;6.50;3.60;;;36.50;21.70;;;;;;21252216;27;20059;-58
2022/08/01 18:59:44;;;;;;;6.07;4.47;;;36.30;22.00;;;;;;21252139;27;20502;-56
2022/08/01 19:09:46;;;;;;;5.03;3.90;;;36.10;22.50;;;;;;21251737;27;20524;-56
2022/08/01 19:19:49;;;;;;;8.65;5.13;;;36.00;22.70;;;;;;21232202;27;20043;-57
2022/08/01 19:29:55;;;;;;;7.30;4.90;;;35.80;23.10;;;;;;21250100;27;20057;-56
2022/08/01 19:39:58;;;;;;;7.90;6.25;;;35.60;23.40;;;;;;21248695;27;20055;-56
2022/08/01 19:50:00;;;;;;;9.43;5.38;;;35.40;24.10;;;;;;21247990;27;20047;-56
2022/08/01 20:00:02;;;;;;;8.05;5.97;;;35.20;24.20;;;;;;21247869;27;20491;-57
2022/08/01 20:10:05;;;;;;;9.52;6.60;;;35.10;24.10;;;;;;21247482;27;20047;-58
2022/08/01 20:20:08;;;;;;;20.00;14.10;;;34.90;24.60;;;;;;21247189;28;20044;-57
2022/08/01 20:30:11;;;;;;;11.73;9.13;;;34.60;25.90;;;;;;21246781;28;20396;-58
2022/08/01 20:40:13;;;;;;;9.25;6.65;;;34.40;26.20;;;;;;21246064;28;20051;-56
2022/08/01 21:00:38;;;;;;;9.27;5.75;;;34.20;26.90;;;;;;21245565;28;20043;-56
2022/08/01 21:10:44;;;;;;;4.70;3.25;;;34.10;27.60;;;;;;21248204;27;20074;-55
2022/08/01 21:20:56;;;;;;;5.68;2.85;;;34.20;20.90;;;;;;21260851;27;20122;-58
2022/08/01 21:30:58;;;;;;;4.25;2.95;;;34.30;19.90;;;;;;21259394;27;20054;-58
2022/08/01 21:41:02;;;;;;;6.78;2.95;;;34.30;19.80;;;;;;21258754;27;20051;-59
2022/08/01 21:51:21;;;;;;;3.03;2.50;;;34.10;20.90;;;;;;21258216;27;20125;-60
2022/08/01 22:01:35;;;;;;;2.80;2.22;;;33.90;21.80;;;;;;21257301;27;20061;-56
2022/08/01 22:11:40;;;;;;;5.68;3.00;;;33.70;22.60;;;;;;21257868;27;20055;-56
2022/08/01 22:21:42;;;;;;;4.28;2.53;;;33.50;23.40;;;;;;21255383;27;20482;-61
2022/08/01 22:31:46;;;;;;;6.97;2.47;;;33.20;24.00;;;;;;21255226;27;20222;-57
2022/08/01 22:41:54;;;;;;;8.43;2.78;;;33.00;24.90;;;;;;21254257;27;20047;-59
2022/08/01 22:52:15;;;;;;;4.97;2.83;;;32.90;25.70;;;;;;21252854;27;20043;-56
2022/08/01 23:02:19;;;;;;;6.20;2.55;;;32.60;26.40;;;;;;21252816;27;20127;-58
2022/08/01 23:12:25;;;;;;;5.50;3.67;;;32.50;27.10;;;;;;21251150;27;20047;-56
2022/08/01 23:22:30;;;;;;;5.85;3.30;;;32.30;29.30;;;;;;21250703;27;20126;-58
2022/08/01 23:32:31;;;;;;;7.72;3.55;;;32.10;31.10;;;;;;21231588;27;20051;-58
2022/08/01 23:42:33;;;;;;;8.88;4.40;;;32.00;32.80;;;;;;21248438;27;20054;-56
2022/08/01 23:52:35;;;;;;;14.88;3.50;;;31.90;34.70;;;;;;21249126;27;20055;-57
